Time;durP1;ratioP1;P1;durP2;ratioP2;P2;SDS_P1;SDS_P2;PMS_P1;PMS_P2;Temp;Humidity;BMP_temperature;BMP_pressure;BME280_temperature;BME280_humidity;BME280_pressure;Samples;Min_cycle;Max_cycle;Signal;HPM_P1;HPM_P2
2022/08/01 00:00:37;;;;;;;12.45;9.10;;;18.50;99.90;;;;;;5045748;28;20187;-86
2022/08/01 00:03:03;;;;;;;11.20;8.70;;;18.50;99.90;;;;;;5030185;28;20093;-89
2022/08/01 00:05:29;;;;;;;15.60;9.35;;;18.50;99.90;;;;;;5047443;28;20514;-89
2022/08/01 00:07:55;;;;;;;15.40;9.13;;;18.40;99.90;;;;;;5031436;28;20028;-88
2022/08/01 00:10:21;;;;;;;12.65;9.20;;;18.40;99.90;;;;;;5061140;28;20318;-89
2022/08/01 00:12:47;;;;;;;12.90;8.60;;;18.40;99.90;;;;;;5062002;28;20460;-89
2022/08/01 00:15:15;;;;;;;12.57;8.70;;;18.40;99.90;;;;;;5047259;28;20467;-89
2022/08/01 00:17:42;;;;;;;11.25;8.98;;;18.40;99.90;;;;;;5046382;28;20040;-89
2022/08/01 00:20:12;;;;;;;14.15;8.93;;;18.40;99.90;;;;;;5034062;28;20119;-87
2022/08/01 00:22:37;;;;;;;14.85;9.70;;;18.50;99.90;;;;;;5044167;28;20117;-89
2022/08/01 00:25:04;;;;;;;15.52;9.38;;;18.50;99.90;;;;;;5058813;28;20068;-88
2022/08/01 00:27:30;;;;;;;13.95;9.40;;;18.40;99.90;;;;;;5032003;28;20131;-88
2022/08/01 00:29:55;;;;;;;17.17;10.05;;;18.50;99.90;;;;;;5035227;28;20088;-90
2022/08/01 00:32:21;;;;;;;16.90;9.98;;;18.50;99.90;;;;;;5061839;28;20419;-88
2022/08/01 00:34:48;;;;;;;15.18;10.48;;;18.40;99.90;;;;;;5044762;28;20033;-88
2022/08/01 00:37:13;;;;;;;14.25;10.07;;;18.40;99.90;;;;;;5028739;28;20434;-88
2022/08/01 00:39:39;;;;;;;16.98;10.88;;;18.40;1.00;;;;;;5027760;28;20098;-89
2022/08/01 00:42:10;;;;;;;15.60;9.70;;;18.50;1.00;;;;;;5061738;28;20044;-88
2022/08/01 00:44:36;;;;;;;15.38;9.75;;;18.40;1.00;;;;;;5044349;28;20519;-89
2022/08/01 00:47:03;;;;;;;15.80;8.85;;;18.50;1.00;;;;;;5056641;28;20489;-88
2022/08/01 00:49:29;;;;;;;12.63;8.63;;;18.40;1.00;;;;;;5044544;28;20044;-89
2022/08/01 00:51:56;;;;;;;15.90;8.98;;;18.40;1.00;;;;;;5063371;28;20047;-88
2022/08/01 00:54:23;;;;;;;8.63;6.68;;;18.40;12.00;;;;;;5032614;28;20036;-89
2022/08/01 00:56:49;;;;;;;11.30;8.18;;;18.40;28.20;;;;;;5028528;28;20059;-88
2022/08/01 00:59:18;;;;;;;9.52;6.47;;;18.50;22.30;;;;;;5031457;28;20040;-89
2022/08/01 01:01:43;;;;;;;9.07;5.50;;;18.50;14.40;;;;;;5059232;28;20040;-87
2022/08/01 01:04:09;;;;;;;9.23;5.80;;;18.50;31.40;;;;;;5042052;28;20048;-88
2022/08/01 01:06:44;;;;;;;8.00;5.55;;;18.40;63.00;;;;;;5043297;28;20132;-87
2022/08/01 01:09:37;;;;;;;7.15;5.18;;;18.40;28.20;;;;;;5056494;28;20044;-88
2022/08/01 01:12:32;;;;;;;8.35;5.60;;;18.30;30.60;;;;;;5058208;28;20036;-88
2022/08/01 01:15:11;;;;;;;7.78;4.65;;;18.50;20.50;;;;;;5030621;28;20503;-88
2022/08/01 01:17:52;;;;;;;7.20;5.25;;;18.40;17.50;;;;;;5040785;28;20044;-87
2022/08/01 01:20:23;;;;;;;7.03;4.78;;;18.50;65.20;;;;;;5022225;28;20044;-88
2022/08/01 01:23:09;;;;;;;7.07;4.90;;;18.40;56.20;;;;;;5041981;28;20036;-87
2022/08/01 01:26:00;;;;;;;7.35;4.35;;;18.50;68.80;;;;;;5044302;28;20044;-89
2022/08/01 01:28:31;;;;;;;8.45;4.60;;;18.40;45.80;;;;;;5056946;28;20039;-89
2022/08/01 01:30:59;;;;;;;6.40;4.60;;;18.50;43.10;;;;;;5070710;28;20427;-87
2022/08/01 01:33:31;;;;;;;5.82;4.18;;;18.40;8.90;;;;;;5028239;28;20036;-89
2022/08/01 01:36:05;;;;;;;6.13;4.47;;;18.50;1.00;;;;;;5030214;28;20052;-89
2022/08/01 01:38:36;;;;;;;7.47;4.28;;;18.30;1.00;;;;;;5042668;28;20038;-89
2022/08/01 01:41:03;;;;;;;7.38;4.13;;;18.30;1.00;;;;;;5041339;28;20134;-89
2022/08/01 01:43:31;;;;;;;7.35;3.47;;;18.30;1.00;;;;;;5045336;28;20035;-88
2022/08/01 01:45:57;;;;;;;5.68;3.25;;;18.40;99.90;;;;;;5046538;28;20036;-88
2022/08/01 01:48:27;;;;;;;4.75;3.30;;;18.30;99.90;;;;;;5044897;28;20093;-88
2022/08/01 01:50:54;;;;;;;5.68;3.22;;;18.30;99.90;;;;;;5067366;28;20838;-87
2022/08/01 01:53:22;;;;;;;8.55;3.20;;;18.30;99.90;;;;;;5024580;28;20025;-86
2022/08/01 01:55:53;;;;;;;4.90;2.45;;;18.20;99.90;;;;;;5057178;28;20396;-87
2022/08/01 01:58:20;;;;;;;5.47;2.63;;;18.20;99.90;;;;;;5048956;28;20059;-88
2022/08/01 02:00:48;;;;;;;9.52;2.85;;;18.10;99.90;;;;;;5056088;28;20345;-88
2022/08/01 02:03:16;;;;;;;6.13;2.72;;;18.10;99.90;;;;;;5045768;28;20045;-89
2022/08/01 02:05:43;;;;;;;7.63;3.10;;;18.10;99.90;;;;;;5043550;28;20039;-89
2022/08/01 02:08:11;;;;;;;4.85;2.70;;;18.00;99.90;;;;;;5048739;28;20043;-88
2022/08/01 02:10:38;;;;;;;6.32;2.95;;;18.10;99.90;;;;;;5043113;28;20213;-89
2022/08/01 02:13:06;;;;;;;8.65;3.30;;;18.00;99.90;;;;;;5074450;28;20082;-89
2022/08/01 02:15:34;;;;;;;7.85;3.20;;;18.00;99.90;;;;;;5028025;28;20029;-89
2022/08/01 02:18:02;;;;;;;7.15;2.97;;;18.00;99.90;;;;;;5075283;28;20040;-88
2022/08/01 02:20:30;;;;;;;8.35;2.90;;;17.90;99.90;;;;;;5029524;28;20045;-88
2022/08/01 02:23:16;;;;;;;5.13;2.65;;;18.00;99.90;;;;;;5062214;28;20094;-88
2022/08/01 02:25:53;;;;;;;8.35;3.03;;;17.90;99.90;;;;;;5060383;28;20047;-87
2022/08/01 02:28:30;;;;;;;7.38;2.78;;;17.90;99.90;;;;;;5048314;28;20179;-87
2022/08/01 02:31:07;;;;;;;7.75;3.20;;;17.90;99.90;;;;;;5078170;28;20306;-88
2022/08/01 02:33:44;;;;;;;8.70;2.83;;;17.90;99.90;;;;;;5064206;28;20413;-88
2022/08/01 02:36:14;;;;;;;5.78;2.58;;;17.80;99.90;;;;;;5036259;28;20050;-87
2022/08/01 02:38:43;;;;;;;7.13;2.60;;;17.80;99.90;;;;;;5064056;28;20418;-87
2022/08/01 02:41:16;;;;;;;5.63;2.55;;;17.80;99.90;;;;;;5049947;28;20068;-89
2022/08/01 02:43:47;;;;;;;7.03;2.80;;;17.80;99.90;;;;;;5034823;28;20048;-88
2022/08/01 02:46:19;;;;;;;5.82;2.25;;;17.70;99.90;;;;;;5064199;28;20063;-88
2022/08/01 02:48:47;;;;;;;5.45;2.30;;;17.80;99.90;;;;;;5063722;28;20833;-88
2022/08/01 02:51:15;;;;;;;5.00;2.28;;;17.80;96.10;;;;;;5062032;28;20654;-87
2022/08/01 02:53:44;;;;;;;6.07;2.53;;;17.70;96.50;;;;;;5051523;28;20111;-88
2022/08/01 02:56:13;;;;;;;5.97;2.40;;;17.70;42.40;;;;;;5062503;28;20046;-87
2022/08/01 02:58:40;;;;;;;4.50;2.47;;;17.70;8.40;;;;;;5029324;28;20225;-86
2022/08/01 03:01:07;;;;;;;8.90;2.80;;;17.70;1.00;;;;;;5033555;28;20139;-87
2022/08/01 03:03:34;;;;;;;9.65;2.63;;;17.70;1.00;;;;;;5062504;28;20591;-88
2022/08/01 03:06:01;;;;;;;4.78;2.67;;;17.70;32.10;;;;;;5050277;28;20059;-89
2022/08/01 03:08:30;;;;;;;6.03;2.58;;;17.70;1.00;;;;;;5060156;28;20048;-88
2022/08/01 03:10:58;;;;;;;7.85;3.30;;;17.70;36.50;;;;;;5049114;28;20351;-88
2022/08/01 03:13:26;;;;;;;7.50;2.78;;;17.60;8.80;;;;;;5033535;28;20032;-89
2022/08/01 03:15:54;;;;;;;11.30;3.20;;;17.60;63.10;;;;;;5061175;28;20444;-89
2022/08/01 03:18:21;;;;;;;9.15;3.13;;;17.60;99.90;;;;;;5061746;28;20052;-90
2022/08/01 03:20:48;;;;;;;7.45;3.22;;;17.60;61.30;;;;;;5033613;28;20055;-87
2022/08/01 03:23:16;;;;;;;8.93;3.65;;;17.50;74.30;;;;;;5046384;28;20518;-88
2022/08/01 03:25:43;;;;;;;12.32;3.60;;;17.40;91.30;;;;;;5033343;28;20064;-88
2022/08/01 03:28:13;;;;;;;11.50;3.70;;;17.50;99.90;;;;;;5031944;28;20091;-88
2022/08/01 03:30:40;;;;;;;13.10;3.80;;;17.40;69.40;;;;;;5049710;28;20035;-87
2022/08/01 03:33:06;;;;;;;10.00;3.70;;;17.40;60.00;;;;;;5046599;28;20052;-88
2022/08/01 03:35:40;;;;;;;10.65;3.65;;;17.30;75.30;;;;;;5028963;28;20460;-88
2022/08/01 03:38:13;;;;;;;12.80;4.00;;;17.40;93.50;;;;;;5058670;28;20040;-89
2022/08/01 03:40:48;;;;;;;11.98;4.90;;;17.40;58.70;;;;;;5032933;28;20040;-89
2022/08/01 03:43:22;;;;;;;9.57;3.47;;;17.30;1.00;;;;;;5062972;28;20121;-88
2022/08/01 03:45:51;;;;;;;7.57;3.60;;;17.30;1.00;;;;;;5047955;28;20117;-88
2022/08/01 03:48:19;;;;;;;10.50;3.63;;;17.30;1.00;;;;;;5031486;28;20040;-88
2022/08/01 03:50:48;;;;;;;8.18;3.88;;;17.30;17.80;;;;;;5074346;28;20447;-88
2022/08/01 03:53:19;;;;;;;10.77;3.70;;;17.20;1.00;;;;;;5046165;28;20076;-90
2022/08/01 03:55:47;;;;;;;9.63;3.50;;;17.20;50.70;;;;;;5028295;28;20527;-90
2022/08/01 03:58:14;;;;;;;9.48;3.42;;;17.10;13.20;;;;;;5029648;28;20514;-88
2022/08/01 04:00:40;;;;;;;10.75;3.65;;;17.10;75.10;;;;;;5027800;28;20155;-87
2022/08/01 04:03:07;;;;;;;11.93;4.05;;;17.20;38.20;;;;;;5048557;28;20127;-89
2022/08/01 04:05:33;;;;;;;9.40;3.88;;;17.10;99.90;;;;;;5059096;28;20173;-89
2022/08/01 04:08:01;;;;;;;9.32;3.63;;;17.20;99.90;;;;;;5032850;28;20040;-88
2022/08/01 04:10:27;;;;;;;9.45;3.83;;;17.10;99.90;;;;;;5058447;28;20175;-88
2022/08/01 04:12:53;;;;;;;12.38;4.32;;;17.00;99.90;;;;;;5060202;28;20092;-88
2022/08/01 04:15:20;;;;;;;10.48;3.92;;;17.10;99.90;;;;;;5058639;28;20089;-89
2022/08/01 04:17:48;;;;;;;8.10;3.30;;;17.10;99.90;;;;;;5059047;28;20048;-90
2022/08/01 04:20:15;;;;;;;11.77;3.92;;;17.10;99.90;;;;;;5029128;28;20044;-88
2022/08/01 04:22:41;;;;;;;10.38;3.85;;;17.10;99.90;;;;;;5031920;28;20440;-88
2022/08/01 04:25:13;;;;;;;11.00;4.13;;;17.10;99.90;;;;;;5034008;28;20048;-89
2022/08/01 04:27:45;;;;;;;13.63;4.18;;;17.00;99.90;;;;;;5037234;28;20199;-91
2022/08/01 04:30:12;;;;;;;11.25;4.13;;;17.10;99.90;;;;;;5048010;28;20098;-89
2022/08/01 04:32:42;;;;;;;11.32;4.20;;;17.00;99.90;;;;;;5062290;28;20498;-89
2022/08/01 04:35:12;;;;;;;12.80;3.55;;;17.10;99.90;;;;;;5060631;28;20499;-89
2022/08/01 04:37:40;;;;;;;12.95;4.25;;;17.00;99.90;;;;;;5046478;28;20115;-90
2022/08/01 04:40:08;;;;;;;13.10;3.85;;;17.00;37.70;;;;;;5024876;28;20072;-88
2022/08/01 04:42:34;;;;;;;13.25;4.03;;;17.00;1.00;;;;;;5048810;28;20097;-89
2022/08/01 04:45:00;;;;;;;12.40;3.70;;;16.90;1.00;;;;;;5060594;28;20036;-88
2022/08/01 04:47:26;;;;;;;10.30;3.55;;;16.90;99.90;;;;;;5058018;28;20442;-89
2022/08/01 04:49:53;;;;;;;15.80;3.83;;;16.90;99.90;;;;;;5036029;28;20430;-89
2022/08/01 04:52:19;;;;;;;10.00;3.90;;;16.90;99.90;;;;;;5038001;28;20029;-88
2022/08/01 04:54:46;;;;;;;12.55;3.60;;;16.90;99.90;;;;;;5059987;28;20027;-88
2022/08/01 04:57:15;;;;;;;8.45;3.42;;;16.80;99.90;;;;;;5030723;28;20107;-88
2022/08/01 04:59:44;;;;;;;9.13;3.92;;;17.00;99.90;;;;;;5033376;28;20227;-88
2022/08/01 05:02:19;;;;;;;9.95;3.60;;;17.00;99.90;;;;;;5035659;28;20144;-89
2022/08/01 05:04:46;;;;;;;13.60;3.72;;;16.80;99.90;;;;;;5035019;28;20051;-90
2022/08/01 05:07:13;;;;;;;14.68;4.45;;;17.00;99.90;;;;;;5032034;28;20068;-89
2022/08/01 05:09:45;;;;;;;13.00;3.30;;;16.90;99.90;;;;;;5046176;28;20243;-89
2022/08/01 05:12:11;;;;;;;15.10;3.60;;;16.90;99.90;;;;;;5078415;28;20051;-88
2022/08/01 05:14:37;;;;;;;16.15;4.53;;;16.80;87.30;;;;;;5034277;28;20385;-89
2022/08/01 05:17:06;;;;;;;10.27;3.40;;;16.90;99.80;;;;;;5035363;28;20043;-90
2022/08/01 05:19:32;;;;;;;11.88;3.45;;;16.90;99.90;;;;;;5034082;28;20044;-88
2022/08/01 05:22:00;;;;;;;10.45;3.30;;;16.80;82.70;;;;;;5029705;28;20085;-88
2022/08/01 05:24:30;;;;;;;14.52;3.58;;;17.00;1.00;;;;;;5030550;28;20048;-89
2022/08/01 05:26:57;;;;;;;12.30;3.78;;;16.80;1.00;;;;;;5061489;28;20400;-88
2022/08/01 05:29:24;;;;;;;13.98;3.40;;;17.00;35.90;;;;;;5030344;28;20118;-90
2022/08/01 05:31:50;;;;;;;14.75;3.53;;;16.90;20.60;;;;;;5061886;28;20039;-87
2022/08/01 05:34:15;;;;;;;16.88;3.92;;;16.80;1.00;;;;;;5050941;28;20399;-90
2022/08/01 05:36:44;;;;;;;13.50;3.60;;;16.80;1.00;;;;;;5030756;28;20583;-89
2022/08/01 05:39:10;;;;;;;12.57;3.45;;;16.80;1.00;;;;;;5068859;28;20495;-88
2022/08/01 05:41:36;;;;;;;16.50;4.18;;;16.90;1.00;;;;;;5028286;28;20062;-89
2022/08/01 05:44:04;;;;;;;8.73;3.60;;;16.80;1.00;;;;;;5057151;28;20522;-89
2022/08/01 05:46:36;;;;;;;13.55;3.67;;;16.90;1.00;;;;;;5026866;28;20103;-88
2022/08/01 05:49:03;;;;;;;12.38;3.45;;;16.90;1.00;;;;;;5040643;28;20055;-88
2022/08/01 05:51:29;;;;;;;14.95;3.65;;;16.90;1.00;;;;;;5042108;28;22323;-87
2022/08/01 05:53:56;;;;;;;12.98;4.07;;;16.90;1.00;;;;;;5052256;28;20044;-88
2022/08/01 05:56:21;;;;;;;12.20;2.83;;;16.90;1.00;;;;;;5053117;28;20179;-89
2022/08/01 05:58:49;;;;;;;14.15;3.22;;;16.90;1.00;;;;;;5044352;28;20064;-88
2022/08/01 06:01:15;;;;;;;17.92;3.83;;;17.00;1.00;;;;;;5024841;28;20106;-88
2022/08/01 06:03:41;;;;;;;14.48;3.80;;;17.00;1.00;;;;;;5023889;28;20071;-89
2022/08/01 06:06:07;;;;;;;20.58;4.15;;;16.90;1.00;;;;;;5059263;28;20045;-88
2022/08/01 06:08:32;;;;;;;15.77;3.90;;;16.90;1.00;;;;;;5070156;28;20072;-88
2022/08/01 06:10:58;;;;;;;18.80;3.63;;;16.90;1.00;;;;;;5055227;28;20127;-89
2022/08/01 06:13:24;;;;;;;15.57;3.55;;;17.00;1.00;;;;;;5023875;28;20033;-88
2022/08/01 06:15:50;;;;;;;12.50;3.58;;;17.00;1.00;;;;;;5070224;28;20130;-89
2022/08/01 06:18:16;;;;;;;16.88;3.63;;;17.00;99.90;;;;;;5054145;28;20553;-88
2022/08/01 06:20:42;;;;;;;18.05;3.85;;;17.00;99.90;;;;;;5070107;28;20103;-90
2022/08/01 06:23:08;;;;;;;15.65;3.97;;;17.00;1.00;;;;;;5024197;28;20029;-88
2022/08/01 06:25:34;;;;;;;15.18;4.00;;;17.00;99.90;;;;;;5069428;28;20090;-89
2022/08/01 06:28:00;;;;;;;19.20;3.85;;;17.00;1.00;;;;;;5043608;28;20513;-88
2022/08/01 06:30:26;;;;;;;12.65;3.88;;;17.00;1.00;;;;;;5025444;28;20409;-88
2022/08/01 06:32:52;;;;;;;18.02;4.28;;;17.00;99.90;;;;;;5054111;28;20037;-90
2022/08/01 06:35:18;;;;;;;17.92;3.75;;;17.00;99.90;;;;;;5070041;28;20052;-88
2022/08/01 06:37:47;;;;;;;13.38;3.83;;;16.90;99.90;;;;;;5027647;28;20442;-87
2022/08/01 06:40:13;;;;;;;16.95;4.03;;;16.80;99.90;;;;;;5041529;28;20522;-88
2022/08/01 06:42:39;;;;;;;15.38;3.60;;;16.80;99.90;;;;;;5057066;28;20036;-87
2022/08/01 06:45:06;;;;;;;13.65;3.65;;;16.90;99.90;;;;;;5030341;28;20044;-89
2022/08/01 06:47:32;;;;;;;19.60;3.90;;;16.90;99.90;;;;;;5060602;28;20056;-88
2022/08/01 06:49:58;;;;;;;17.73;4.20;;;16.90;99.90;;;;;;5029931;28;20297;-88
2022/08/01 06:52:26;;;;;;;14.70;4.03;;;16.90;99.90;;;;;;5053612;28;20131;-88
2022/08/01 06:54:51;;;;;;;14.27;3.38;;;17.00;99.90;;;;;;5044556;28;20043;-87
2022/08/01 06:57:17;;;;;;;12.45;3.38;;;17.10;99.90;;;;;;5046390;28;20037;-88
2022/08/01 06:59:43;;;;;;;16.63;3.83;;;17.00;1.00;;;;;;5028726;28;20120;-88
2022/08/01 07:02:09;;;;;;;12.18;3.58;;;17.00;99.90;;;;;;5033824;28;20044;-88
2022/08/01 07:04:34;;;;;;;14.73;3.47;;;17.00;1.10;;;;;;5028912;28;20595;-88
2022/08/01 07:07:01;;;;;;;13.25;3.55;;;17.00;1.00;;;;;;5052488;28;20037;-88
2022/08/01 07:09:26;;;;;;;13.05;3.60;;;17.10;78.00;;;;;;5052851;28;20144;-88
2022/08/01 07:11:53;;;;;;;15.48;3.80;;;17.10;1.00;;;;;;5036277;28;20131;-88
2022/08/01 07:14:20;;;;;;;17.10;3.63;;;17.20;1.00;;;;;;5050552;28;20120;-88
2022/08/01 07:16:46;;;;;;;17.63;3.88;;;17.40;16.80;;;;;;5060604;28;20040;-88
2022/08/01 07:19:12;;;;;;;15.48;3.50;;;17.30;1.00;;;;;;5075983;28;20048;-88
2022/08/01 07:21:38;;;;;;;12.63;3.50;;;17.30;99.90;;;;;;5054769;28;20033;-86
2022/08/01 07:24:05;;;;;;;13.65;3.55;;;17.40;1.00;;;;;;5029273;28;20044;-88
2022/08/01 07:26:31;;;;;;;15.18;3.97;;;17.60;1.00;;;;;;5059620;28;20441;-88
2022/08/01 07:28:59;;;;;;;19.90;3.65;;;17.50;1.00;;;;;;5057921;28;20043;-89
2022/08/01 07:31:25;;;;;;;16.98;3.72;;;17.70;1.00;;;;;;5045672;28;20386;-87
2022/08/01 07:33:51;;;;;;;11.27;3.22;;;17.60;99.90;;;;;;5033138;28;20044;-87
2022/08/01 07:36:17;;;;;;;13.95;3.65;;;17.80;99.90;;;;;;5077978;28;20037;-88
2022/08/01 07:38:44;;;;;;;14.80;3.47;;;17.80;99.90;;;;;;5074347;28;20404;-88
2022/08/01 07:41:10;;;;;;;17.13;4.22;;;17.60;99.90;;;;;;5056236;28;20048;-87
2022/08/01 07:43:36;;;;;;;15.77;3.33;;;17.80;99.90;;;;;;5030279;28;20179;-88
2022/08/01 07:46:03;;;;;;;12.85;2.88;;;17.60;99.90;;;;;;5044217;28;20057;-89
2022/08/01 07:48:29;;;;;;;15.32;3.08;;;17.90;99.90;;;;;;5028349;28;20123;-88
2022/08/01 07:50:55;;;;;;;14.18;3.20;;;18.00;99.90;;;;;;5027687;28;20461;-87
2022/08/01 07:53:20;;;;;;;10.10;2.70;;;18.20;99.90;;;;;;5053620;28;20040;-88
2022/08/01 07:55:47;;;;;;;11.57;2.92;;;17.90;99.90;;;;;;5031220;28;20049;-87
2022/08/01 07:58:13;;;;;;;11.40;2.80;;;18.10;99.90;;;;;;5027100;28;20036;-87
2022/08/01 08:00:39;;;;;;;14.65;3.08;;;17.90;99.90;;;;;;5075594;28;20161;-89
2022/08/01 08:03:08;;;;;;;12.23;3.45;;;18.00;99.90;;;;;;5029019;28;20056;-88
2022/08/01 08:05:35;;;;;;;14.70;3.15;;;18.50;99.90;;;;;;5052865;28;20044;-89
2022/08/01 08:08:05;;;;;;;14.63;3.83;;;18.40;99.90;;;;;;5026316;28;20081;-88
2022/08/01 08:10:31;;;;;;;11.75;3.17;;;18.40;24.30;;;;;;5027641;28;20033;-88
2022/08/01 08:13:01;;;;;;;17.70;3.67;;;18.30;48.40;;;;;;5031402;28;20045;-89
2022/08/01 08:15:29;;;;;;;15.02;3.20;;;18.20;1.00;;;;;;5077172;28;20107;-88
2022/08/01 08:17:55;;;;;;;12.43;3.08;;;18.50;1.00;;;;;;5027157;28;20080;-88
2022/08/01 08:20:29;;;;;;;12.00;3.13;;;18.80;99.90;;;;;;5054441;28;20131;-87
2022/08/01 08:22:57;;;;;;;18.20;3.10;;;18.60;99.90;;;;;;5032693;28;20056;-87
2022/08/01 08:25:24;;;;;;;9.05;2.58;;;18.50;1.00;;;;;;5051936;28;20041;-87
2022/08/01 08:27:50;;;;;;;14.38;2.47;;;18.70;99.90;;;;;;5026323;28;20047;-86
2022/08/01 08:30:16;;;;;;;11.88;2.67;;;18.70;99.90;;;;;;5028347;28;20094;-88
2022/08/01 08:32:43;;;;;;;12.50;2.70;;;18.80;1.00;;;;;;5053301;28;20499;-87
2022/08/01 08:35:10;;;;;;;10.70;2.67;;;18.80;99.90;;;;;;5053191;28;20055;-88
2022/08/01 08:37:36;;;;;;;7.47;2.33;;;19.00;1.00;;;;;;5013209;28;20107;-88
2022/08/01 08:40:06;;;;;;;11.60;2.88;;;19.10;99.90;;;;;;5030053;28;20156;-87
2022/08/01 08:42:32;;;;;;;10.60;2.63;;;18.60;99.90;;;;;;5021178;28;20040;-88
2022/08/01 08:44:58;;;;;;;12.95;3.03;;;18.50;8.60;;;;;;5047543;28;20039;-86
2022/08/01 08:47:25;;;;;;;8.02;2.42;;;18.30;99.90;;;;;;5046569;28;20132;-87
2022/08/01 08:49:53;;;;;;;9.32;2.25;;;18.60;99.90;;;;;;5068436;28;20081;-88
2022/08/01 08:52:20;;;;;;;6.88;2.35;;;19.00;99.90;;;;;;5067988;28;20047;-87
2022/08/01 08:54:48;;;;;;;7.00;2.17;;;19.40;99.90;;;;;;5051027;28;20208;-89
2022/08/01 08:57:14;;;;;;;10.70;2.58;;;19.40;99.90;;;;;;5043324;28;20033;-87
2022/08/01 08:59:42;;;;;;;8.50;2.60;;;18.80;99.90;;;;;;5071076;28;20040;-88
2022/08/01 09:02:09;;;;;;;11.48;2.70;;;18.90;99.90;;;;;;5043383;28;20141;-86
2022/08/01 09:04:36;;;;;;;8.75;2.50;;;18.90;99.90;;;;;;5031618;28;20036;-87
2022/08/01 09:07:04;;;;;;;8.65;2.60;;;18.90;99.90;;;;;;5027549;28;20102;-88
2022/08/01 09:09:30;;;;;;;11.48;2.47;;;19.20;99.90;;;;;;5046525;28;20032;-87
2022/08/01 09:11:56;;;;;;;7.82;2.10;;;19.00;99.90;;;;;;5050232;28;20039;-88
2022/08/01 09:14:31;;;;;;;9.27;2.50;;;19.40;99.90;;;;;;5030828;28;20123;-87
2022/08/01 09:17:02;;;;;;;8.65;2.40;;;19.50;99.90;;;;;;5053984;28;20068;-87
2022/08/01 09:19:38;;;;;;;11.32;1.90;;;19.80;99.90;;;;;;5055672;28;20082;-88
2022/08/01 09:22:08;;;;;;;8.07;1.98;;;19.90;99.90;;;;;;5030478;28;20565;-86
2022/08/01 09:24:35;;;;;;;7.70;1.90;;;19.40;99.90;;;;;;5026950;28;20052;-87
2022/08/01 09:27:14;;;;;;;9.15;2.33;;;19.80;99.90;;;;;;5026608;28;20036;-87
2022/08/01 09:29:39;;;;;;;7.53;2.17;;;19.60;99.90;;;;;;5062767;28;20432;-86
2022/08/01 09:32:06;;;;;;;8.25;2.10;;;19.70;99.90;;;;;;5032279;28;20043;-88
2022/08/01 09:34:32;;;;;;;9.95;2.22;;;19.20;99.90;;;;;;5057232;28;20515;-87
2022/08/01 09:37:00;;;;;;;12.18;2.30;;;19.60;99.90;;;;;;5058420;28;20049;-87
2022/08/01 09:39:29;;;;;;;8.40;1.98;;;19.70;99.90;;;;;;5056249;28;20268;-89
2022/08/01 09:41:56;;;;;;;11.32;1.95;;;20.00;99.90;;;;;;5028007;28;20047;-89
2022/08/01 09:44:39;;;;;;;7.57;2.22;;;19.60;99.90;;;;;;5026683;28;20037;-86
2022/08/01 09:47:08;;;;;;;7.68;2.08;;;19.30;99.90;;;;;;5051752;28;20049;-88
2022/08/01 09:49:36;;;;;;;5.65;1.88;;;19.60;99.90;;;;;;5050828;28;20036;-88
2022/08/01 09:52:13;;;;;;;8.90;2.10;;;19.60;99.90;;;;;;5026042;28;20267;-87
2022/08/01 09:54:40;;;;;;;10.45;2.00;;;19.60;99.90;;;;;;5024052;28;20062;-87
2022/08/01 09:57:14;;;;;;;7.35;1.98;;;19.50;99.90;;;;;;5069888;28;20349;-88
2022/08/01 09:59:46;;;;;;;7.28;1.92;;;19.40;99.90;;;;;;5055418;28;20037;-87
2022/08/01 10:02:34;;;;;;;8.02;1.92;;;19.60;99.90;;;;;;5027808;28;20049;-87
2022/08/01 10:05:01;;;;;;;7.05;1.85;;;19.80;99.90;;;;;;5039088;28;20071;-88
2022/08/01 10:07:27;;;;;;;7.28;1.70;;;20.00;10.10;;;;;;5050652;28;20368;-88
2022/08/01 10:09:53;;;;;;;10.40;1.85;;;19.60;1.00;;;;;;5021652;28;20561;-89
2022/08/01 10:12:21;;;;;;;9.55;2.00;;;20.00;24.40;;;;;;5056228;28;20378;-88
2022/08/01 10:14:54;;;;;;;9.50;2.38;;;20.30;89.30;;;;;;5054491;28;20179;-87
2022/08/01 10:17:20;;;;;;;7.65;2.20;;;20.30;56.90;;;;;;5058197;28;20051;-88
2022/08/01 10:19:49;;;;;;;5.30;1.60;;;19.70;20.60;;;;;;5030094;28;20480;-88
2022/08/01 10:22:17;;;;;;;3.85;1.20;;;19.20;1.00;;;;;;5022923;28;20048;-87
2022/08/01 10:24:47;;;;;;;6.90;1.60;;;19.50;1.00;;;;;;5040788;28;20459;-87
2022/08/01 10:27:16;;;;;;;9.10;1.70;;;19.80;1.00;;;;;;5070304;28;20582;-88
2022/08/01 10:29:46;;;;;;;9.10;2.60;;;19.60;1.00;;;;;;5028896;28;20036;-87
2022/08/01 10:32:12;;;;;;;5.50;1.73;;;19.40;1.00;;;;;;5043996;28;20040;-88
2022/08/01 10:34:38;;;;;;;6.70;1.83;;;19.80;96.70;;;;;;5029773;28;20499;-86
2022/08/01 10:37:05;;;;;;;7.43;1.75;;;20.20;44.70;;;;;;5044160;28;20033;-88
2022/08/01 10:39:32;;;;;;;3.33;1.50;;;20.40;1.00;;;;;;5020322;28;20608;-87
2022/08/01 10:41:58;;;;;;;5.78;1.45;;;20.10;1.00;;;;;;5028032;28;20286;-88
2022/08/01 10:44:29;;;;;;;6.68;1.65;;;19.70;1.00;;;;;;5029823;28;20060;-87
2022/08/01 10:47:07;;;;;;;5.13;1.70;;;20.40;1.00;;;;;;5057996;28;20047;-87
2022/08/01 10:49:43;;;;;;;5.82;1.92;;;20.50;1.00;;;;;;5072692;28;20047;-88
2022/08/01 10:52:15;;;;;;;7.82;2.13;;;20.40;1.00;;;;;;5064253;28;20101;-87
2022/08/01 10:54:40;;;;;;;6.47;1.60;;;20.70;1.00;;;;;;5052428;28;20270;-88
2022/08/01 10:57:06;;;;;;;5.55;1.52;;;21.10;1.00;;;;;;5072553;28;20294;-88
2022/08/01 10:59:34;;;;;;;5.45;1.58;;;20.60;1.00;;;;;;5059610;28;20075;-87
2022/08/01 11:02:04;;;;;;;7.22;1.70;;;21.10;1.00;;;;;;5076725;28;20075;-86
2022/08/01 11:05:01;;;;;;;8.10;1.67;;;21.10;1.00;;;;;;5031400;28;20037;-87
2022/08/01 11:08:03;;;;;;;6.68;1.83;;;21.10;1.00;;;;;;5057365;28;20649;-87
2022/08/01 11:10:29;;;;;;;6.55;1.40;;;20.10;1.00;;;;;;5052803;28;20468;-88
2022/08/01 11:12:54;;;;;;;6.55;2.25;;;19.60;1.00;;;;;;5059528;28;20032;-86
2022/08/01 11:15:24;;;;;;;6.53;1.42;;;20.00;1.00;;;;;;5059609;28;20135;-88
2022/08/01 11:17:51;;;;;;;8.25;1.60;;;20.50;1.00;;;;;;5060800;28;20066;-87
2022/08/01 11:20:17;;;;;;;6.05;1.73;;;20.80;1.00;;;;;;5052667;28;20045;-88
2022/08/01 11:23:01;;;;;;;9.50;1.55;;;21.00;1.00;;;;;;5034772;28;20132;-86
2022/08/01 11:25:48;;;;;;;8.05;1.45;;;20.60;1.00;;;;;;5047042;28;20032;-88
2022/08/01 11:28:14;;;;;;;7.47;1.83;;;20.60;99.90;;;;;;5039804;28;20570;-88
2022/08/01 11:30:40;;;;;;;9.02;2.00;;;20.80;1.00;;;;;;5060237;28;20255;-87
2022/08/01 11:33:07;;;;;;;8.85;1.83;;;21.00;99.90;;;;;;5034505;28;20078;-86
2022/08/01 11:35:34;;;;;;;5.53;1.48;;;21.00;1.00;;;;;;5051872;28;20135;-87
2022/08/01 11:38:22;;;;;;;4.63;1.50;;;20.40;99.90;;;;;;5028756;28;20056;-88
2022/08/01 11:41:11;;;;;;;7.35;1.45;;;20.80;99.90;;;;;;5057376;28;20139;-89
2022/08/01 11:44:04;;;;;;;10.20;2.38;;;20.90;99.90;;;;;;5061990;28;20627;-87
2022/08/01 11:47:07;;;;;;;6.93;1.67;;;20.40;99.90;;;;;;5039221;28;20085;-88
2022/08/01 11:49:45;;;;;;;5.72;1.70;;;20.30;99.90;;;;;;5040779;28;20057;-88
2022/08/01 11:52:19;;;;;;;6.60;1.50;;;20.20;99.90;;;;;;5006987;28;20044;-87
2022/08/01 11:54:48;;;;;;;5.07;1.42;;;20.30;99.90;;;;;;5040038;28;20036;-87
2022/08/01 11:57:22;;;;;;;5.70;1.42;;;20.60;99.90;;;;;;5056162;28;20111;-87
2022/08/01 11:59:56;;;;;;;9.27;1.95;;;20.80;99.90;;;;;;5038632;28;20034;-88
2022/08/01 12:02:24;;;;;;;5.13;1.48;;;20.60;99.90;;;;;;5044005;28;20299;-88
2022/08/01 12:04:57;;;;;;;8.75;2.00;;;20.30;99.90;;;;;;5065912;28;20045;-88
2022/08/01 12:07:25;;;;;;;15.50;1.92;;;20.70;99.90;;;;;;5040207;28;20068;-87
2022/08/01 12:10:04;;;;;;;4.72;1.45;;;20.60;99.90;;;;;;5034931;28;20477;-88
2022/08/01 12:12:31;;;;;;;5.28;1.60;;;20.80;99.90;;;;;;5009340;28;20029;-87
2022/08/01 12:15:00;;;;;;;4.97;1.50;;;21.00;99.90;;;;;;5043236;28;20103;-87
2022/08/01 12:17:37;;;;;;;5.75;1.50;;;21.20;99.90;;;;;;5037547;28;20451;-87
2022/08/01 12:20:09;;;;;;;8.55;1.70;;;20.90;99.90;;;;;;5039676;28;20380;-87
2022/08/01 12:22:38;;;;;;;9.73;1.50;;;21.40;99.90;;;;;;5042505;28;20423;-88
2022/08/01 12:25:15;;;;;;;5.57;1.58;;;21.20;99.90;;;;;;5007782;28;20123;-87
2022/08/01 12:27:42;;;;;;;5.22;1.80;;;20.70;99.90;;;;;;5041362;28;20396;-88
2022/08/01 12:30:15;;;;;;;6.43;1.63;;;20.80;99.90;;;;;;5035350;28;20431;-88
2022/08/01 12:32:43;;;;;;;4.65;1.40;;;21.40;99.90;;;;;;5041764;28;20112;-87
2022/08/01 12:35:09;;;;;;;5.25;1.50;;;21.40;99.90;;;;;;5056595;28;20115;-88
2022/08/01 12:37:37;;;;;;;8.52;1.75;;;21.60;99.90;;;;;;5036465;28;20147;-86
2022/08/01 12:40:13;;;;;;;6.65;1.70;;;21.90;99.90;;;;;;5057311;28;20037;-87
2022/08/01 12:42:41;;;;;;;7.40;1.40;;;21.60;99.90;;;;;;5058524;28;20071;-88
2022/08/01 12:45:12;;;;;;;3.58;1.20;;;21.60;99.90;;;;;;5058735;28;20460;-86
2022/08/01 12:47:39;;;;;;;6.50;1.60;;;21.60;99.90;;;;;;5040343;28;20044;-88
2022/08/01 12:50:08;;;;;;;4.35;1.20;;;21.10;99.90;;;;;;5060096;28;20543;-87
2022/08/01 12:52:34;;;;;;;7.00;1.75;;;21.70;99.90;;;;;;5075564;28;20033;-87
2022/08/01 12:55:01;;;;;;;5.82;1.77;;;21.90;99.90;;;;;;5054930;28;20534;-86